Time;durP1;ratioP1;P1;durP2;ratioP2;P2;SDS_P1;SDS_P2;PMS_P1;PMS_P2;Temp;Humidity;BMP_temperature;BMP_pressure;BME280_temperature;BME280_humidity;BME280_pressure;Samples;Min_cycle;Max_cycle;Signal;HPM_P1;HPM_P2
2020/05/30 00:00:20;;;;;;;5.6;4.1;;;;;;;9.14;79.66406;942.0081;;;;
2020/05/30 00:02:45;;;;;;;4.7;3.7;;;;;;;9.21;79.12109;941.9878;;;;
2020/05/30 00:05:18;;;;;;;4.7;3.7;;;;;;;9.19;79.15039;941.9473;;;;
2020/05/30 00:07:36;;;;;;;5.3;3.7;;;;;;;9.21;78.94922;941.9523;;;;
2020/05/30 00:10:01;;;;;;;4.9;3.8;;;;;;;9.2;78.9375;941.9213;;;;
2020/05/30 00:14:51;;;;;;;5.8;4.6;;;;;;;9.04;79.53418;941.9855;;;;
2020/05/30 00:17:16;;;;;;;4.7;4.1;;;;;;;9.02;79.31445;941.9358;;;;
2020/05/30 00:22:15;;;;;;;4.2;3.8;;;;;;;8.89;79.69922;941.9501;;;;
2020/05/30 00:27:10;;;;;;;4.8;3.4;;;;;;;8.77;80.09766;941.9077;;;;
2020/05/30 00:29:22;;;;;;;5.1;4.2;;;;;;;8.77;80.01855;941.9283;;;;
2020/05/30 00:31:48;;;;;;;4.3;3.9;;;;;;;8.81;79.82227;941.9303;;;;
2020/05/30 00:34:13;;;;;;;6.5;3.9;;;;;;;8.82;79.60547;941.8724;;;;
2020/05/30 00:36:40;;;;;;;6.2;4.2;;;;;;;8.76;79.82129;941.8994;;;;
2020/05/30 00:39:05;;;;;;;6.3;4.2;;;;;;;8.69;80.15137;941.9146;;;;
2020/05/30 00:41:31;;;;;;;4.6;4;;;;;;;8.74;79.56934;941.8959;;;;
2020/05/30 00:43:56;;;;;;;4.8;4.1;;;;;;;8.73;79.50977;941.9211;;;;
2020/05/30 00:46:21;;;;;;;5.9;4.2;;;;;;;8.63;79.9668;941.8672;;;;
2020/05/30 00:48:50;;;;;;;5;4.1;;;;;;;8.63;79.94629;941.8886;;;;
2020/05/30 00:51:19;;;;;;;4.2;3.8;;;;;;;8.6;79.70215;941.8448;;;;
2020/05/30 00:53:44;;;;;;;5.9;3.9;;;;;;;8.61;79.61133;941.8489;;;;
2020/05/30 00:56:11;;;;;;;4.6;3.8;;;;;;;8.55;79.71484;941.8184;;;;
2020/05/30 00:58:38;;;;;;;4.9;4.1;;;;;;;8.34;80.3916;941.8376;;;;
2020/05/30 01:01:03;;;;;;;4.8;4.3;;;;;;;8.07;82.0332;941.8655;;;;
2020/05/30 01:03:36;;;;;;;5.5;4.3;;;;;;;8.15;81.69629;941.8097;;;;
2020/05/30 01:05:55;;;;;;;5.1;4.1;;;;;;;8.18;81.51953;941.7897;;;;
2020/05/30 01:10:47;;;;;;;5.5;4.4;;;;;;;8.24;81.17969;941.7685;;;;
2020/05/30 01:13:11;;;;;;;4.4;3.8;;;;;;;8.26;80.95801;941.8571;;;;
2020/05/30 01:18:00;;;;;;;5.1;4.1;;;;;;;8.12;81.33789;941.7955;;;;
2020/05/30 01:20:25;;;;;;;5.3;4.5;;;;;;;8.02;81.80859;941.7629;;;;
2020/05/30 01:22:50;;;;;;;5.7;4.3;;;;;;;8.14;81.27441;941.7548;;;;
2020/05/30 01:25:15;;;;;;;6;4.3;;;;;;;8.17;80.85938;941.7784;;;;
2020/05/30 01:27:41;;;;;;;5.6;4.6;;;;;;;8.07;81.0791;941.7665;;;;
2020/05/30 01:30:06;;;;;;;4.5;4.1;;;;;;;8.05;81.13281;941.7399;;;;
2020/05/30 01:32:32;;;;;;;5.3;4.3;;;;;;;8.02;81.16211;941.7527;;;;
2020/05/30 01:37:23;;;;;;;6.1;4.4;;;;;;;8.04;80.77734;941.6262;;;;
2020/05/30 01:39:49;;;;;;;7.1;4.6;;;;;;;7.99;81.23438;941.7025;;;;
2020/05/30 01:43:12;;;;;;;4.9;4.1;;;;;;;7.88;81.52051;941.6964;;;;
2020/05/30 01:44:40;;;;;;;5.2;4.4;;;;;;;7.95;81.18164;941.6365;;;;
2020/05/30 01:47:10;;;;;;;4.5;4.1;;;;;;;7.99;80.80273;941.6928;;;;
2020/05/30 01:52:17;;;;;;;5.3;4.2;;;;;;;7.88;80.92969;941.6869;;;;
2020/05/30 01:54:22;;;;;;;4.4;4;;;;;;;7.91;80.76465;941.6448;;;;
2020/05/30 01:56:47;;;;;;;6.9;4.5;;;;;;;7.75;81.58691;941.6334;;;;
2020/05/30 01:59:14;;;;;;;4.8;4.3;;;;;;;7.76;81.04395;941.6347;;;;
2020/05/30 02:01:39;;;;;;;5.7;4.4;;;;;;;7.66;81.37695;941.6258;;;;
2020/05/30 02:04:09;;;;;;;6.5;4.7;;;;;;;7.56;81.91211;941.6394;;;;
2020/05/30 02:06:34;;;;;;;5.5;4.9;;;;;;;7.48;82.36133;941.6294;;;;
2020/05/30 02:09:03;;;;;;;5.8;4.7;;;;;;;7.21;83.16113;941.4922;;;;
2020/05/30 02:18:51;;;;;;;5.8;4.5;;;;;;;7.26;83.60059;941.491;;;;
2020/05/30 02:21:07;;;;;;;5.7;4.6;;;;;;;7.35;83.07422;941.5267;;;;
2020/05/30 02:23:32;;;;;;;8.1;4.9;;;;;;;7.43;82.60254;941.5189;;;;
2020/05/30 02:25:58;;;;;;;5.7;4.5;;;;;;;7.46;82.06445;941.4816;;;;
2020/05/30 02:28:23;;;;;;;5.3;4.3;;;;;;;7.3;82.58887;941.4509;;;;
2020/05/30 02:30:50;;;;;;;7.3;4.5;;;;;;;7.35;82.26953;941.4903;;;;
2020/05/30 02:33:23;;;;;;;5;4.5;;;;;;;7.22;82.58496;941.4361;;;;
2020/05/30 02:35:47;;;;;;;5.4;4.4;;;;;;;7.2;82.38867;941.4005;;;;
2020/05/30 02:38:07;;;;;;;5.5;4.5;;;;;;;7.22;82.19922;941.4692;;;;
2020/05/30 02:40:30;;;;;;;6;4.6;;;;;;;7.2;82.58008;941.4043;;;;
2020/05/30 02:43:00;;;;;;;6.2;4.5;;;;;;;7.26;81.93457;941.3635;;;;
2020/05/30 02:47:54;;;;;;;5.2;4.2;;;;;;;7.23;81.87402;941.385;;;;
2020/05/30 02:50:16;;;;;;;11.3;6.4;;;;;;;6.93;83.19727;941.3895;;;;
2020/05/30 02:52:50;;;;;;;7.9;5.4;;;;;;;7.01;82.89746;941.3883;;;;
2020/05/30 02:55:14;;;;;;;8;5.3;;;;;;;6.94;83.48242;941.2799;;;;
2020/05/30 02:57:29;;;;;;;5.8;4.8;;;;;;;6.95;83.27051;941.2834;;;;
2020/05/30 03:02:29;;;;;;;6.7;4.7;;;;;;;6.81;83.81934;941.3672;;;;
2020/05/30 03:04:43;;;;;;;6.4;4.8;;;;;;;;;;;;;
2020/05/30 03:07:10;;;;;;;6.4;4.8;;;;;;;;;;;;;
2020/05/30 03:09:39;;;;;;;5.3;4.7;;;;;;;;;;;;;
2020/05/30 03:12:15;;;;;;;5.3;4.4;;;;;;;;;;;;;
2020/05/30 03:16:57;;;;;;;6.6;4.9;;;;;;;;;;;;;
2020/05/30 03:21:49;;;;;;;6;4.5;;;;;;;;;;;;;
2020/05/30 03:24:33;;;;;;;5.6;4.7;;;;;;;;;;;;;
2020/05/30 03:26:35;;;;;;;5.9;4.4;;;;;;;;;;;;;
2020/05/30 03:31:44;;;;;;;7.5;4.6;;;;;;;;;;;;;
2020/05/30 03:34:10;;;;;;;5.5;4.4;;;;;;;;;;;;;
2020/05/30 03:38:50;;;;;;;4.7;4.2;;;;;;;;;;;;;
2020/05/30 03:41:24;;;;;;;5.7;4.2;;;;;;;;;;;;;
2020/05/30 03:43:37;;;;;;;7;4.4;;;;;;;;;;;;;
2020/05/30 03:48:31;;;;;;;5.5;4.3;;;;;;;;;;;;;
2020/05/30 03:51:26;;;;;;;4.8;4.2;;;;;;;;;;;;;
2020/05/30 03:53:33;;;;;;;5;4.3;;;;;;;;;;;;;
2020/05/30 03:55:40;;;;;;;7.7;4.3;;;;;;;;;;;;;
2020/05/30 04:03:39;;;;;;;4.4;4;;;;;;;7.01;81.92188;941.3683;;;;
2020/05/30 04:05:08;;;;;;;7.3;4.1;;;;;;;6.97;82.09473;941.3455;;;;
2020/05/30 04:07:39;;;;;;;5.5;4.7;;;;;;;7.1;81.71289;941.2988;;;;
2020/05/30 04:19:44;;;;;;;5.7;4;;;;;;;7.02;81.93457;941.3583;;;;
2020/05/30 04:22:11;;;;;;;5.8;4.3;;;;;;;6.97;82.50195;941.3495;;;;
2020/05/30 04:26:55;;;;;;;4.8;4.1;;;;;;;7.01;82.11426;941.3453;;;;
2020/05/30 04:36:39;;;;;;;4.7;4.3;;;;;;;7.11;81.85059;941.3022;;;;
2020/05/30 04:39:03;;;;;;;4.9;4.1;;;;;;;7.13;81.93262;941.2695;;;;
2020/05/30 04:41:37;;;;;;;7.3;4.2;;;;;;;7.16;81.9043;941.3059;;;;
2020/05/30 04:46:27;;;;;;;9.5;4.7;;;;;;;7.21;81.66406;941.269;;;;
2020/05/30 04:48:43;;;;;;;7.9;4.3;;;;;;;7.2;82.06055;941.2706;;;;
2020/05/30 04:51:13;;;;;;;5.7;4.3;;;;;;;7.32;81.56348;941.2623;;;;
2020/05/30 04:59:00;;;;;;;7.2;4.5;;;;;;;7.53;81.27246;941.1799;;;;
2020/05/30 05:03:25;;;;;;;8.2;4.4;;;;;;;7.59;81.88477;941.1917;;;;
2020/05/30 05:08:32;;;;;;;5.7;3;;;;;;;10.69;71.96777;941.0652;;;;
2020/05/30 05:18:03;;;;;;;3.3;2.3;;;;;;;15.18;55.91211;940.985;;;;
2020/05/30 05:25:08;;;;;;;7.3;2.2;;;;;;;17.74;47.96289;940.9856;;;;
2020/05/30 05:32:39;;;;;;;2.8;1.8;;;;;;;18.7;45.53223;940.9844;;;;
2020/05/30 05:36:12;;;;;;;3.9;1.7;;;;;;;19.42;44.62793;940.9889;;;;
2020/05/30 05:37:15;;;;;;;2.3;1.8;;;;;;;19.59;43.91016;941.0206;;;;
2020/05/30 05:39:39;;;;;;;3.1;1.8;;;;;;;20.57;40.68945;941.0025;;;;
2020/05/30 05:42:02;;;;;;;2.8;1.9;;;;;;;21.64;38.43457;940.9775;;;;
2020/05/30 05:44:23;;;;;;;2.2;1.7;;;;;;;21.83;37.49121;940.9396;;;;
2020/05/30 05:47:11;;;;;;;3.5;1.6;;;;;;;20.91;42.05371;940.9985;;;;
2020/05/30 05:51:38;;;;;;;4.1;1.8;;;;;;;20.82;41.91699;941.0013;;;;
2020/05/30 05:54:06;;;;;;;4.3;2;;;;;;;20.19;44.21484;940.962;;;;
2020/05/30 05:56:32;;;;;;;2.3;1.7;;;;;;;20.75;42.72852;940.9724;;;;
2020/05/30 05:58:57;;;;;;;3.2;2;;;;;;;20.87;42.2959;940.9501;;;;
2020/05/30 06:01:22;;;;;;;2.5;1.7;;;;;;;21.63;39.76953;940.8973;;;;
2020/05/30 06:03:47;;;;;;;2.6;1.7;;;;;;;22.72;37.35449;940.8027;;;;
2020/05/30 06:06:12;;;;;;;2.8;1.8;;;;;;;22.65;37.41797;940.8904;;;;
2020/05/30 06:08:38;;;;;;;1.7;1.5;;;;;;;21.96;39.14258;940.8489;;;;
2020/05/30 06:11:03;;;;;;;3.3;1.6;;;;;;;22;38.8877;940.8469;;;;
2020/05/30 06:13:28;;;;;;;3;1.6;;;;;;;22.73;38.42383;940.8528;;;;
2020/05/30 06:15:54;;;;;;;1.9;1.6;;;;;;;23.07;37.125;940.8365;;;;
2020/05/30 06:18:32;;;;;;;3.4;1.7;;;;;;;24.55;33.62988;940.8762;;;;
2020/05/30 06:20:48;;;;;;;2.6;1.5;;;;;;;24.18;35.31055;940.8215;;;;
2020/05/30 06:23:10;;;;;;;2.2;1.5;;;;;;;24.93;32.70313;940.839;;;;
2020/05/30 06:25:35;;;;;;;2.4;1.4;;;;;;;24.1;35.72754;940.8091;;;;
2020/05/30 06:28:00;;;;;;;2.3;1.5;;;;;;;24.65;35.58301;940.8912;;;;
2020/05/30 06:30:26;;;;;;;2.9;1.6;;;;;;;25.45;34.13477;940.8563;;;;
2020/05/30 06:32:51;;;;;;;2.4;1.3;;;;;;;26.04;33.00879;940.8901;;;;
2020/05/30 06:35:16;;;;;;;2.7;1.5;;;;;;;26.88;32.13477;940.8114;;;;
2020/05/30 06:37:42;;;;;;;2;1.6;;;;;;;28.1;29.62012;940.9007;;;;
2020/05/30 06:42:33;;;;;;;2.6;1.4;;;;;;;28.41;28.42676;940.8809;;;;
2020/05/30 06:44:59;;;;;;;1.6;1.3;;;;;;;29.04;27.20605;940.8812;;;;
2020/05/30 06:47:30;;;;;;;2.4;1.3;;;;;;;29.06;27.32617;940.8373;;;;
2020/05/30 06:50:02;;;;;;;2.2;1.5;;;;;;;28.71;28.14941;940.8699;;;;
2020/05/30 06:52:27;;;;;;;3.1;1.6;;;;;;;27.34;29.16699;940.8426;;;;
2020/05/30 06:54:41;;;;;;;3.4;1.8;;;;;;;25.11;32.29004;940.8378;;;;
2020/05/30 06:57:06;;;;;;;3.9;1.8;;;;;;;24.5;34.46289;940.8148;;;;
2020/05/30 06:59:33;;;;;;;3.4;1.9;;;;;;;23.48;35.13672;940.8516;;;;
2020/05/30 07:02:01;;;;;;;3.5;1.8;;;;;;;22.34;38.07324;940.8242;;;;
2020/05/30 07:04:23;;;;;;;4.2;2;;;;;;;22.26;38.81641;940.8237;;;;
2020/05/30 07:06:49;;;;;;;3.2;1.8;;;;;;;24.24;35.46777;940.7681;;;;
2020/05/30 07:09:19;;;;;;;3.8;1.8;;;;;;;26.13;31.78516;940.7031;;;;
2020/05/30 07:11:44;;;;;;;4;1.7;;;;;;;26.8;31.05078;940.6964;;;;
2020/05/30 07:14:09;;;;;;;2.3;1.8;;;;;;;25.2;32.6875;940.6995;;;;
2020/05/30 07:16:37;;;;;;;4.2;1.9;;;;;;;23.76;35.80566;940.7615;;;;
2020/05/30 07:19:04;;;;;;;2;1.7;;;;;;;22.52;38.27539;940.6476;;;;
2020/05/30 07:21:29;;;;;;;3.2;2;;;;;;;21;41.53613;940.741;;;;
2020/05/30 07:24:14;;;;;;;2.6;2.1;;;;;;;20;43.64844;940.7131;;;;
2020/05/30 07:26:17;;;;;;;3.8;2.2;;;;;;;19.43;45.1875;940.7158;;;;
2020/05/30 07:29:20;;;;;;;3.3;2.2;;;;;;;18.84;47.19922;940.6644;;;;
2020/05/30 07:31:15;;;;;;;4;2.5;;;;;;;18.15;49.47168;940.5966;;;;
2020/05/30 07:33:36;;;;;;;4.3;2.1;;;;;;;17.59;49.61719;940.4917;;;;
2020/05/30 07:36:07;;;;;;;4;2.3;;;;;;;17.54;50.09961;940.548;;;;
2020/05/30 07:38:25;;;;;;;3.4;2;;;;;;;18.43;48.94531;940.5708;;;;
2020/05/30 07:40:51;;;;;;;4.1;2.1;;;;;;;20.66;44.08789;940.5221;;;;
2020/05/30 07:43:19;;;;;;;4.3;1.7;;;;;;;23.49;36.57324;940.5325;;;;
2020/05/30 07:45:46;;;;;;;3.4;1.7;;;;;;;25.52;33.91504;940.4437;;;;
2020/05/30 07:48:20;;;;;;;3;1.5;;;;;;;27.02;30.5791;940.4122;;;;
2020/05/30 07:50:47;;;;;;;3.1;1.4;;;;;;;26.01;32.03711;940.4121;;;;
2020/05/30 07:53:13;;;;;;;2;1.5;;;;;;;26.89;30.78418;940.3304;;;;
2020/05/30 07:57:47;;;;;;;3.9;1.8;;;;;;;24.23;33.58203;940.3283;;;;
2020/05/30 08:00:19;;;;;;;3.1;1.8;;;;;;;23.13;36.55469;940.3387;;;;
2020/05/30 08:02:51;;;;;;;5.7;1.8;;;;;;;22.21;39.1748;940.3074;;;;
2020/05/30 08:08:05;;;;;;;3.2;1.4;;;;;;;25.11;34.69824;940.2462;;;;
2020/05/30 08:22:00;;;;;;;2.3;1.9;;;;;;;21.02;40.98926;940.253;;;;
2020/05/30 08:24:25;;;;;;;4.2;2;;;;;;;20.4;41.41016;940.2706;;;;
2020/05/30 08:26:50;;;;;;;3.5;1.8;;;;;;;19.19;43.0791;940.1944;;;;
2020/05/30 08:29:16;;;;;;;2.9;2;;;;;;;19.49;44.56445;940.2419;;;;
2020/05/30 08:32:06;;;;;;;3.1;1.5;;;;;;;21.67;41.20117;940.2219;;;;
2020/05/30 08:34:09;;;;;;;4.4;1.6;;;;;;;22.98;36.28418;940.2209;;;;
2020/05/30 08:36:33;;;;;;;3.8;1.5;;;;;;;23.1;36.11719;940.1707;;;;
2020/05/30 08:38:58;;;;;;;4;1.7;;;;;;;23.11;36.7168;940.2462;;;;
2020/05/30 08:42:24;;;;;;;3.7;1.4;;;;;;;24.59;35.77832;940.2636;;;;
2020/05/30 08:43:50;;;;;;;2.8;1.4;;;;;;;25.69;33.19531;940.205;;;;
2020/05/30 08:46:20;;;;;;;3.4;1.4;;;;;;;26.98;30.5293;940.2112;;;;
2020/05/30 08:48:40;;;;;;;1.4;1.2;;;;;;;27.44;29.95703;940.1613;;;;
2020/05/30 08:51:05;;;;;;;3.7;1.5;;;;;;;27.47;30.72949;940.1613;;;;
2020/05/30 08:53:30;;;;;;;2.4;1.3;;;;;;;27.57;29.88184;940.2304;;;;
2020/05/30 08:55:55;;;;;;;2.8;1.2;;;;;;;27.27;29.87402;940.2106;;;;
2020/05/30 08:58:20;;;;;;;3.5;1.4;;;;;;;26.55;31.74414;940.1433;;;;
2020/05/30 09:00:45;;;;;;;3.5;1.4;;;;;;;26.87;32.11035;940.1;;;;
2020/05/30 09:03:11;;;;;;;3.2;1.3;;;;;;;26.44;31.71191;940.0247;;;;
2020/05/30 09:08:26;;;;;;;3.3;1.4;;;;;;;25.98;32.78027;940.0087;;;;
2020/05/30 09:10:26;;;;;;;4.8;1.4;;;;;;;26.24;31.92285;939.9603;;;;
2020/05/30 09:12:53;;;;;;;1.8;1.2;;;;;;;25.84;32.76953;939.9672;;;;
2020/05/30 09:15:22;;;;;;;4.5;1.7;;;;;;;25.19;34.18555;939.9573;;;;
2020/05/30 09:17:46;;;;;;;2.9;1.4;;;;;;;25.46;34.66699;939.8894;;;;
2020/05/30 09:22:37;;;;;;;4.1;1.4;;;;;;;25.91;33.33008;939.8441;;;;
2020/05/30 09:25:34;;;;;;;1.9;1.1;;;;;;;25.7;32.90137;939.7964;;;;
2020/05/30 09:27:23;;;;;;;2.6;1.4;;;;;;;25.41;33.05664;939.7277;;;;
2020/05/30 09:32:19;;;;;;;3.6;1.3;;;;;;;25.13;33.28418;939.7045;;;;
2020/05/30 09:34:47;;;;;;;4;1.2;;;;;;;23.28;35.0498;939.6934;;;;
2020/05/30 09:38:27;;;;;;;2.5;1.6;;;;;;;22.14;37.16504;939.6964;;;;
2020/05/30 09:39:38;;;;;;;3.3;1.3;;;;;;;21.63;38.45605;939.673;;;;
2020/05/30 09:42:01;;;;;;;2.9;1.4;;;;;;;21.18;38.89746;939.635;;;;
2020/05/30 09:46:51;;;;;;;2.9;1.5;;;;;;;20.43;39.90625;939.6994;;;;
2020/05/30 09:49:26;;;;;;;2.8;1.3;;;;;;;19.85;40.87988;939.7056;;;;
2020/05/30 09:51:49;;;;;;;2.3;1.3;;;;;;;19.34;41.18359;939.6707;;;;
2020/05/30 09:54:09;;;;;;;4.5;1.5;;;;;;;19.19;42.85742;939.7051;;;;
2020/05/30 09:56:53;;;;;;;2.7;1.4;;;;;;;19.25;41.39551;939.7083;;;;
2020/05/30 09:58:53;;;;;;;3.3;1.3;;;;;;;19.4;40.69922;939.7333;;;;
2020/05/30 10:01:21;;;;;;;3.1;1.3;;;;;;;19.28;42.37598;939.753;;;;
2020/05/30 10:03:42;;;;;;;4.1;1.4;;;;;;;19.29;41.24805;939.6768;;;;
2020/05/30 10:06:08;;;;;;;4.2;1.5;;;;;;;19.07;43.24121;939.7061;;;;
2020/05/30 10:08:33;;;;;;;2.7;1.2;;;;;;;19.03;42.1084;939.6877;;;;
2020/05/30 10:10:59;;;;;;;2.5;1.2;;;;;;;18.76;42.28027;939.6716;;;;
2020/05/30 10:13:40;;;;;;;2.5;1.2;;;;;;;18.85;43.42969;939.6951;;;;
2020/05/30 10:16:01;;;;;;;5.2;1.2;;;;;;;18.63;42.22168;939.6644;;;;
2020/05/30 10:18:15;;;;;;;2.3;1.2;;;;;;;18.8;42.72656;939.7118;;;;
2020/05/30 10:20:40;;;;;;;2.3;1.2;;;;;;;18.95;41.84473;939.6833;;;;
2020/05/30 10:23:05;;;;;;;3;1.2;;;;;;;19.17;43.87988;939.6507;;;;
2020/05/30 10:27:57;;;;;;;1.5;1;;;;;;;20.08;41.46191;939.5911;;;;
2020/05/30 10:30:23;;;;;;;3.1;1;;;;;;;21;39.4082;939.5986;;;;
2020/05/30 10:32:48;;;;;;;2.2;1;;;;;;;21.97;36.57715;939.522;;;;
2020/05/30 10:37:40;;;;;;;1.4;0.8;;;;;;;23.3;33.72363;939.5478;;;;
2020/05/30 10:40:05;;;;;;;1.7;0.9;;;;;;;23.53;33.4707;939.5084;;;;
2020/05/30 10:42:30;;;;;;;3.2;1;;;;;;;23.39;35.43555;939.5199;;;;
2020/05/30 10:44:55;;;;;;;2.6;1.1;;;;;;;23.46;35.31152;939.5022;;;;
2020/05/30 10:47:20;;;;;;;3.2;1.1;;;;;;;23.33;31.84473;939.5418;;;;
2020/05/30 10:49:45;;;;;;;1.7;0.9;;;;;;;23.24;31.85059;939.5471;;;;
2020/05/30 10:52:12;;;;;;;3.5;1;;;;;;;23.05;32.02441;939.5196;;;;
2020/05/30 10:54:37;;;;;;;3.4;1.1;;;;;;;22.39;36.08203;939.5286;;;;
2020/05/30 10:57:02;;;;;;;2;1.1;;;;;;;22.73;32.49512;939.4603;;;;
2020/05/30 10:59:27;;;;;;;1.8;1.1;;;;;;;22.48;32.48828;939.5071;;;;
2020/05/30 11:01:52;;;;;;;3;1.2;;;;;;;22.1;34.03125;939.491;;;;
2020/05/30 11:04:17;;;;;;;2.8;1.2;;;;;;;21.87;35.60742;939.4669;;;;
2020/05/30 11:06:43;;;;;;;2.5;1.2;;;;;;;21.77;36.0791;939.439;;;;
2020/05/30 11:09:10;;;;;;;2.9;1.4;;;;;;;21.39;37.48828;939.4972;;;;
2020/05/30 11:11:35;;;;;;;2;1.2;;;;;;;21.37;34.6084;939.488;;;;
2020/05/30 11:14:01;;;;;;;3.6;1.2;;;;;;;21.59;34.53027;939.459;;;;
2020/05/30 11:16:26;;;;;;;1.2;1;;;;;;;21.41;35.03223;939.4252;;;;
2020/05/30 11:18:53;;;;;;;1.3;0.9;;;;;;;21.12;35.81641;939.4196;;;;
2020/05/30 11:21:19;;;;;;;2.8;1.2;;;;;;;20.85;34.67188;939.3705;;;;
2020/05/30 11:23:44;;;;;;;4.5;1.4;;;;;;;20.63;37.17871;939.4612;;;;
2020/05/30 11:26:09;;;;;;;2.5;1.4;;;;;;;20.54;37.70801;939.4247;;;;
2020/05/30 11:28:35;;;;;;;3.1;1.1;;;;;;;20.22;37.84473;939.4235;;;;
2020/05/30 11:31:00;;;;;;;4.7;1.2;;;;;;;20.14;37.38281;939.4666;;;;
2020/05/30 11:33:29;;;;;;;3.1;1.4;;;;;;;19.84;38.0918;939.4786;;;;
2020/05/30 11:35:54;;;;;;;1.5;1;;;;;;;19.56;37.61328;939.4603;;;;
2020/05/30 11:38:19;;;;;;;2.7;1;;;;;;;19.59;36.84668;939.4856;;;;
2020/05/30 11:40:44;;;;;;;1.9;1.1;;;;;;;19.51;36.87402;939.5058;;;;
2020/05/30 11:43:09;;;;;;;2;1.2;;;;;;;19.47;38.43359;939.4509;;;;
2020/05/30 11:45:34;;;;;;;2.5;1.3;;;;;;;19.4;39.35938;939.4828;;;;
2020/05/30 11:48:00;;;;;;;7.2;1.5;;;;;;;19.26;39.00879;939.5062;;;;
2020/05/30 11:50:27;;;;;;;3.5;1.2;;;;;;;19.18;38.72168;939.4698;;;;
2020/05/30 11:52:52;;;;;;;6.8;1.4;;;;;;;19.24;40.54395;939.4713;;;;
2020/05/30 11:55:18;;;;;;;2.4;1.2;;;;;;;19.32;40.00391;939.4775;;;;
2020/05/30 11:57:43;;;;;;;3.1;1.3;;;;;;;19.1;41.75488;939.4214;;;;
2020/05/30 12:00:09;;;;;;;4.4;1.3;;;;;;;19.04;40.0957;939.4454;;;;
2020/05/30 12:02:34;;;;;;;2.8;1.2;;;;;;;19.16;40.04785;939.4241;;;;
2020/05/30 12:05:01;;;;;;;4.1;1.3;;;;;;;19.54;38.92871;939.351;;;;
2020/05/30 12:07:26;;;;;;;4.9;1.6;;;;;;;20.02;39.27441;939.3135;;;;
2020/05/30 12:09:52;;;;;;;2.1;1;;;;;;;20.64;39.3418;939.3541;;;;
2020/05/30 12:12:17;;;;;;;3;1.1;;;;;;;21.08;38.58496;939.3123;;;;
2020/05/30 12:14:43;;;;;;;2.3;1.1;;;;;;;21.71;37.75;939.2659;;;;
2020/05/30 12:17:09;;;;;;;2.8;1.1;;;;;;;21.7;35.73438;939.274;;;;
2020/05/30 12:19:35;;;;;;;4;1.1;;;;;;;21.56;34.92676;939.2508;;;;
2020/05/30 12:22:00;;;;;;;2.8;1.3;;;;;;;21.18;35.3877;939.3085;;;;
2020/05/30 12:24:27;;;;;;;2.8;1.1;;;;;;;20.81;38.72461;939.2629;;;;
2020/05/30 12:26:51;;;;;;;2.6;1.3;;;;;;;20.63;39.83105;939.3756;;;;
2020/05/30 12:29:18;;;;;;;4.3;1.3;;;;;;;20.55;38.03613;939.3328;;;;
2020/05/30 12:31:43;;;;;;;3.1;1.5;;;;;;;20.32;38.93848;939.3264;;;;
2020/05/30 12:34:09;;;;;;;2.3;1.1;;;;;;;20.12;38.98047;939.3231;;;;
2020/05/30 12:36:34;;;;;;;4.4;1.7;;;;;;;19.94;39.45313;939.3962;;;;
2020/05/30 12:39:03;;;;;;;3.1;1.5;;;;;;;19.8;39.41797;939.4528;;;;
2020/05/30 12:41:29;;;;;;;4.6;1.3;;;;;;;19.55;39.33789;939.4073;;;;
2020/05/30 12:43:54;;;;;;;3.8;1.3;;;;;;;19.27;40.04688;939.4141;;;;
2020/05/30 12:46:20;;;;;;;2.2;1.4;;;;;;;18.78;41.1543;939.3621;;;;
2020/05/30 12:48:45;;;;;;;2.8;1.3;;;;;;;18.68;41.64551;939.3948;;;;
2020/05/30 12:51:11;;;;;;;3.6;1.4;;;;;;;18.56;42.28516;939.3812;;;;
2020/05/30 12:53:36;;;;;;;5.8;1.6;;;;;;;18.17;43.55957;939.4283;;;;
2020/05/30 12:56:01;;;;;;;4.4;1.8;;;;;;;17.94;43.94336;939.4425;;;;
2020/05/30 12:58:27;;;;;;;5.2;1.7;;;;;;;17.88;43.65918;939.4322;;;;
2020/05/30 13:00:52;;;;;;;7;1.9;;;;;;;17.92;44.37109;939.475;;;;
2020/05/30 13:03:19;;;;;;;7.3;1.8;;;;;;;17.85;43.76172;939.394;;;;
2020/05/30 13:05:44;;;;;;;5.6;2;;;;;;;17.75;44.81836;939.418;;;;
2020/05/30 13:08:11;;;;;;;3.4;1.6;;;;;;;17.52;44.0293;939.4468;;;;
2020/05/30 13:10:36;;;;;;;3.3;1.6;;;;;;;17.48;44.90723;939.4345;;;;
2020/05/30 13:13:02;;;;;;;6.3;1.7;;;;;;;17.56;45.47266;939.4163;;;;
2020/05/30 13:15:27;;;;;;;6.9;1.8;;;;;;;17.43;44.72852;939.4023;;;;
2020/05/30 13:17:53;;;;;;;8.9;1.9;;;;;;;17.28;45.4082;939.4807;;;;
2020/05/30 13:20:18;;;;;;;11.2;2.2;;;;;;;17.35;45.74023;939.4828;;;;
2020/05/30 13:22:43;;;;;;;7.1;1.8;;;;;;;17.09;45.30762;939.475;;;;
2020/05/30 13:25:09;;;;;;;5.2;1.8;;;;;;;17.22;45.35645;939.5008;;;;
2020/05/30 13:27:34;;;;;;;5.4;1.8;;;;;;;17.21;44.47363;939.5562;;;;
2020/05/30 13:30:01;;;;;;;4.6;1.4;;;;;;;17.16;43.98242;939.5391;;;;
2020/05/30 13:32:26;;;;;;;4.9;1.3;;;;;;;17.31;45.26074;939.5059;;;;
2020/05/30 13:34:52;;;;;;;5;1.4;;;;;;;17.16;43.65723;939.5109;;;;
2020/05/30 13:37:17;;;;;;;3.3;1.2;;;;;;;17.1;43.92969;939.4844;;;;
2020/05/30 13:39:43;;;;;;;4.9;1.3;;;;;;;17.2;43.74316;939.4903;;;;
2020/05/30 13:42:08;;;;;;;3.7;1.6;;;;;;;17.23;44.78906;939.4733;;;;
2020/05/30 13:44:33;;;;;;;4.3;1.4;;;;;;;17.02;43.75977;939.4863;;;;
2020/05/30 13:47:00;;;;;;;3.6;1.5;;;;;;;17.13;44.47754;939.4824;;;;
2020/05/30 13:49:25;;;;;;;4.4;1.6;;;;;;;17.21;44.26465;939.4556;;;;
2020/05/30 13:51:51;;;;;;;4.5;1.6;;;;;;;17.26;44.82715;939.4214;;;;
2020/05/30 13:54:16;;;;;;;7;1.7;;;;;;;17.24;44.95117;939.4201;;;;
2020/05/30 13:56:42;;;;;;;4.4;1.4;;;;;;;17.19;44.11328;939.4292;;;;
2020/05/30 13:59:07;;;;;;;5.7;1.8;;;;;;;17.22;43.87109;939.4088;;;;
2020/05/30 14:01:34;;;;;;;4.4;1.5;;;;;;;17.06;43.90137;939.3056;;;;
2020/05/30 14:03:59;;;;;;;3.1;1.6;;;;;;;17.08;43.23242;939.3713;;;;
2020/05/30 14:06:24;;;;;;;2.1;1.4;;;;;;;16.89;44.16309;939.3116;;;;
2020/05/30 14:08:49;;;;;;;4.2;1.4;;;;;;;16.93;43.55273;939.3948;;;;
2020/05/30 14:11:14;;;;;;;3;1.1;;;;;;;16.91;43.40039;939.3636;;;;
2020/05/30 14:13:39;;;;;;;4;1.3;;;;;;;16.79;44.01465;939.3191;;;;
2020/05/30 14:16:04;;;;;;;2.3;1.2;;;;;;;16.78;43.0752;939.402;;;;
2020/05/30 14:18:29;;;;;;;2.9;1.1;;;;;;;16.76;43.95313;939.4514;;;;
2020/05/30 14:20:54;;;;;;;2.3;1.1;;;;;;;16.51;43.75488;939.4441;;;;
2020/05/30 14:23:19;;;;;;;5.1;1.1;;;;;;;16.65;43.86133;939.438;;;;
2020/05/30 14:25:45;;;;;;;2.4;1.1;;;;;;;16.75;43.80176;939.3502;;;;
2020/05/30 14:28:10;;;;;;;3.1;1;;;;;;;16.82;42.79004;939.3986;;;;
2020/05/30 14:30:35;;;;;;;2.3;1.2;;;;;;;16.91;42.38086;939.3677;;;;
2020/05/30 14:33:01;;;;;;;3.8;1.2;;;;;;;17.01;43.39844;939.3865;;;;
2020/05/30 14:35:26;;;;;;;2.8;1.2;;;;;;;17.04;43.1709;939.3614;;;;
2020/05/30 14:37:52;;;;;;;3.2;1.3;;;;;;;17.16;42.20801;939.3669;;;;
2020/05/30 14:40:17;;;;;;;3.6;0.9;;;;;;;17.29;42.06836;939.3752;;;;
2020/05/30 14:42:43;;;;;;;2.7;1;;;;;;;17.34;40.51953;939.3591;;;;
2020/05/30 14:45:08;;;;;;;3.9;1;;;;;;;17.19;40.33398;939.3938;;;;
2020/05/30 14:47:34;;;;;;;2.5;1;;;;;;;17.28;39.33203;939.3036;;;;
2020/05/30 14:49:59;;;;;;;3;1.1;;;;;;;17.34;40.03418;939.3766;;;;
2020/05/30 14:52:26;;;;;;;3.3;1;;;;;;;17.31;39.98438;939.4441;;;;
2020/05/30 14:54:51;;;;;;;4.4;1.2;;;;;;;17.31;41.53809;939.3956;;;;
2020/05/30 14:57:17;;;;;;;2.6;1.1;;;;;;;17.31;39.88086;939.4077;;;;
2020/05/30 14:59:42;;;;;;;2.7;0.9;;;;;;;17.42;39.99414;939.3836;;;;
2020/05/30 15:02:08;;;;;;;3;1.1;;;;;;;17.46;40.41602;939.4114;;;;
2020/05/30 15:04:33;;;;;;;2.8;1.1;;;;;;;17.39;39.89844;939.3976;;;;
2020/05/30 15:07:02;;;;;;;4.1;1.2;;;;;;;17;42.69141;939.4324;;;;
2020/05/30 15:09:27;;;;;;;3.5;1.2;;;;;;;16.88;43.41992;939.4155;;;;
2020/05/30 15:11:52;;;;;;;1.8;1;;;;;;;16.72;44.97949;939.3979;;;;
2020/05/30 15:14:18;;;;;;;4.2;1.1;;;;;;;16.74;44.75098;939.4652;;;;
2020/05/30 15:16:43;;;;;;;2.8;1.1;;;;;;;16.52;45.89746;939.493;;;;
2020/05/30 15:19:08;;;;;;;3.2;1.2;;;;;;;16.45;45.77344;939.5477;;;;
2020/05/30 15:21:33;;;;;;;3.2;1.5;;;;;;;16.19;46.98438;939.5731;;;;
2020/05/30 15:23:59;;;;;;;3;1.1;;;;;;;16.14;47.36133;939.5302;;;;
2020/05/30 15:26:25;;;;;;;2.6;1.5;;;;;;;16.02;47.65918;939.5049;;;;
2020/05/30 15:28:50;;;;;;;3.8;1.5;;;;;;;15.98;47.72559;939.6142;;;;
2020/05/30 15:31:17;;;;;;;6.5;1.2;;;;;;;15.97;48.71875;939.652;;;;
2020/05/30 15:33:42;;;;;;;5.1;1.5;;;;;;;15.95;49.27148;939.6578;;;;
2020/05/30 15:36:07;;;;;;;3.7;1.3;;;;;;;15.92;49.31348;939.6782;;;;
2020/05/30 15:38:32;;;;;;;6.5;1.5;;;;;;;15.69;49.25293;939.6838;;;;
2020/05/30 15:40:57;;;;;;;3.5;1.4;;;;;;;15.76;49.74609;939.7531;;;;
2020/05/30 15:43:22;;;;;;;2.8;1.4;;;;;;;15.75;49.82617;939.7042;;;;
2020/05/30 15:45:48;;;;;;;4.9;1.6;;;;;;;15.8;49.86621;939.7874;;;;
2020/05/30 15:48:13;;;;;;;2.1;1.3;;;;;;;15.73;49.98535;939.7798;;;;
2020/05/30 15:50:38;;;;;;;3.6;1.5;;;;;;;15.51;50.19141;939.7367;;;;
2020/05/30 15:53:05;;;;;;;6.3;1.8;;;;;;;15.58;50.84668;939.7498;;;;
2020/05/30 15:55:30;;;;;;;4.6;2;;;;;;;15.51;50.67676;939.74;;;;
2020/05/30 15:57:57;;;;;;;5.4;1.5;;;;;;;15.56;50.83301;939.73;;;;
2020/05/30 16:00:22;;;;;;;5.1;1.8;;;;;;;15.47;50.4873;939.7266;;;;
2020/05/30 16:02:47;;;;;;;7.8;2.7;;;;;;;15.43;51.01367;939.7983;;;;
2020/05/30 16:05:12;;;;;;;4.6;1.8;;;;;;;15.24;51.06055;939.7103;;;;
2020/05/30 16:07:37;;;;;;;2.9;1.5;;;;;;;15.16;51.14355;939.8002;;;;
2020/05/30 16:10:02;;;;;;;6.8;1.8;;;;;;;15.17;51.97559;939.7706;;;;
2020/05/30 16:12:27;;;;;;;3.9;1.6;;;;;;;15.1;51.4834;939.7676;;;;
2020/05/30 16:14:54;;;;;;;7.2;2.4;;;;;;;15.15;52.00879;939.7441;;;;
2020/05/30 16:17:19;;;;;;;6.8;2.4;;;;;;;15.19;51.66699;939.7424;;;;
2020/05/30 16:19:45;;;;;;;4.1;1.9;;;;;;;15.15;51.86914;939.7217;;;;
2020/05/30 16:22:10;;;;;;;4.3;1.7;;;;;;;15.26;51.95117;939.735;;;;
2020/05/30 16:24:37;;;;;;;3.9;1.7;;;;;;;15.2;51.37891;939.7792;;;;
2020/05/30 16:27:02;;;;;;;5.3;1.7;;;;;;;15.21;51.57715;939.788;;;;
2020/05/30 16:29:29;;;;;;;5.7;1.7;;;;;;;15;51.5166;939.7222;;;;
2020/05/30 16:31:53;;;;;;;6;2;;;;;;;15;51.89746;939.7687;;;;
2020/05/30 16:34:20;;;;;;;5.8;1.7;;;;;;;15.05;52.21484;939.6646;;;;
2020/05/30 16:36:45;;;;;;;3;1.6;;;;;;;14.96;52.32129;939.8002;;;;
2020/05/30 16:39:11;;;;;;;3.5;1.8;;;;;;;14.87;52.80566;939.7308;;;;